Time;durP1;ratioP1;P1;durP2;ratioP2;P2;SDS_P1;SDS_P2;PMS_P1;PMS_P2;Temp;Humidity;BMP_temperature;BMP_pressure;BME280_temperature;BME280_humidity;BME280_pressure;Samples;Min_cycle;Max_cycle;Signal;HPM_P1;HPM_P2
2024/02/15 00:01:04;;;;;;;4.35;2.53;;;9.60;99.90;;;;;;7594897;19;20018;-76
2024/02/15 00:03:36;;;;;;;3.92;2.08;;;9.50;99.90;;;;;;7600211;19;20011;-76
2024/02/15 00:06:08;;;;;;;3.88;2.08;;;9.60;99.90;;;;;;7583744;19;20858;-76
2024/02/15 00:08:41;;;;;;;3.20;1.90;;;9.60;99.90;;;;;;7604405;19;20022;-77
2024/02/15 00:11:13;;;;;;;2.78;1.88;;;9.60;99.90;;;;;;7597708;19;20015;-77
2024/02/15 00:13:46;;;;;;;2.58;1.67;;;9.60;99.90;;;;;;7605045;19;20011;-77
2024/02/15 00:16:18;;;;;;;2.83;1.77;;;9.50;99.90;;;;;;7594578;19;20038;-77
2024/02/15 00:18:52;;;;;;;4.03;1.58;;;9.60;99.90;;;;;;7606303;19;20111;-77
2024/02/15 00:21:24;;;;;;;3.80;1.45;;;9.50;99.90;;;;;;7602130;19;20011;-77
2024/02/15 00:23:59;;;;;;;2.97;1.55;;;9.60;99.90;;;;;;7606961;19;20018;-77
2024/02/15 00:26:31;;;;;;;3.80;1.35;;;9.50;99.90;;;;;;7597330;19;20385;-76
2024/02/15 00:29:04;;;;;;;3.60;1.77;;;9.50;99.90;;;;;;7603861;19;20019;-76
2024/02/15 00:31:38;;;;;;;2.97;1.83;;;9.50;99.90;;;;;;7595738;19;20015;-77
2024/02/15 00:34:11;;;;;;;4.60;1.55;;;9.50;99.90;;;;;;7604000;19;20039;-77
2024/02/15 00:36:45;;;;;;;4.03;1.80;;;9.50;99.90;;;;;;7596595;19;20081;-76
2024/02/15 00:39:20;;;;;;;1.90;1.35;;;9.50;99.90;;;;;;7603633;19;20022;-76
2024/02/15 00:41:55;;;;;;;2.92;1.30;;;9.50;99.90;;;;;;7601016;19;20018;-77
2024/02/15 00:44:28;;;;;;;2.65;1.42;;;9.50;99.90;;;;;;7596320;19;20014;-75
2024/02/15 00:47:00;;;;;;;2.97;1.60;;;9.50;99.90;;;;;;7600287;19;20643;-78
2024/02/15 00:49:33;;;;;;;2.30;1.58;;;9.40;99.90;;;;;;7599494;19;20070;-75
2024/02/15 00:52:06;;;;;;;7.95;1.70;;;9.40;99.90;;;;;;7602666;19;20858;-75
2024/02/15 00:54:38;;;;;;;1.73;1.20;;;9.40;99.90;;;;;;7588329;19;20022;-75
2024/02/15 00:57:11;;;;;;;3.10;1.52;;;9.40;99.90;;;;;;7600491;19;20022;-74
2024/02/15 00:59:44;;;;;;;2.38;1.58;;;9.30;99.90;;;;;;7597273;19;20026;-76
2024/02/15 01:02:17;;;;;;;3.25;1.38;;;9.40;99.90;;;;;;7599359;19;20026;-77
2024/02/15 01:04:52;;;;;;;2.42;1.50;;;9.40;99.90;;;;;;7604068;19;20830;-75
2024/02/15 01:07:28;;;;;;;1.73;1.27;;;9.30;99.90;;;;;;7594827;19;20054;-74
2024/02/15 01:10:00;;;;;;;2.80;1.70;;;9.30;99.90;;;;;;7598530;19;20022;-75
2024/02/15 01:12:33;;;;;;;2.80;1.40;;;9.20;99.90;;;;;;7594709;19;20018;-75
2024/02/15 01:15:06;;;;;;;1.85;1.35;;;9.20;99.90;;;;;;7602739;19;20480;-75
2024/02/15 01:17:38;;;;;;;2.13;1.37;;;9.10;99.90;;;;;;7589508;19;20044;-75
2024/02/15 01:20:11;;;;;;;1.88;1.45;;;9.10;99.90;;;;;;7605371;19;20011;-77
2024/02/15 01:22:44;;;;;;;8.10;1.75;;;9.20;99.90;;;;;;7594759;19;20022;-74
2024/02/15 01:25:17;;;;;;;2.45;1.45;;;9.20;99.90;;;;;;7594723;19;20022;-77
2024/02/15 01:27:50;;;;;;;3.30;1.70;;;9.10;99.90;;;;;;7599761;19;20558;-77
2024/02/15 01:30:23;;;;;;;;;;;9.10;99.90;;;;;;7600440;19;20038;-74
2024/02/15 01:32:55;;;;;;;2.88;1.40;;;9.00;99.90;;;;;;7600164;19;19919;-77
2024/02/15 01:35:27;;;;;;;2.97;1.50;;;8.90;99.90;;;;;;7595849;19;20019;-77
2024/02/15 01:38:00;;;;;;;2.17;1.58;;;8.90;99.90;;;;;;7604865;19;21325;-77
2024/02/15 01:40:33;;;;;;;2.85;1.63;;;8.90;99.90;;;;;;7604517;19;20022;-77
2024/02/15 01:43:05;;;;;;;2.92;1.23;;;8.90;99.90;;;;;;7598276;19;20467;-77
2024/02/15 01:45:38;;;;;;;3.75;1.65;;;9.00;99.90;;;;;;7595954;19;20029;-75
2024/02/15 01:48:10;;;;;;;1.83;1.40;;;9.00;99.90;;;;;;7601676;19;21003;-76
2024/02/15 01:50:44;;;;;;;1.53;1.17;;;8.90;99.90;;;;;;7596882;19;20018;-77
2024/02/15 01:53:17;;;;;;;1.93;1.47;;;8.90;99.90;;;;;;7594096;19;20018;-76
2024/02/15 01:55:50;;;;;;;2.58;1.30;;;8.80;99.90;;;;;;7595420;19;20025;-77
2024/02/15 01:58:22;;;;;;;4.22;1.25;;;8.80;99.90;;;;;;7603547;19;20018;-77
2024/02/15 02:00:56;;;;;;;2.40;1.42;;;8.70;99.90;;;;;;7601620;19;20906;-74
2024/02/15 02:03:29;;;;;;;2.65;1.58;;;8.60;99.90;;;;;;7592747;19;20389;-77
2024/02/15 02:06:03;;;;;;;1.80;1.20;;;8.50;99.90;;;;;;7602820;19;20026;-75
2024/02/15 02:08:36;;;;;;;2.38;1.13;;;8.50;99.90;;;;;;7594603;19;20057;-76
2024/02/15 02:11:09;;;;;;;1.70;1.30;;;8.50;99.90;;;;;;7603828;19;20010;-77
2024/02/15 02:13:42;;;;;;;1.80;1.38;;;8.50;99.90;;;;;;7549092;19;20018;-77
2024/02/15 02:16:32;;;;;;;2.97;1.30;;;8.50;99.90;;;;;;7596810;19;20284;-77
2024/02/15 02:19:08;;;;;;;2.85;1.45;;;8.50;99.90;;;;;;7599482;19;20024;-77
2024/02/15 02:21:40;;;;;;;1.60;1.30;;;8.50;99.90;;;;;;7593704;19;20422;-76
2024/02/15 02:24:16;;;;;;;2.58;1.40;;;8.60;99.90;;;;;;7599384;19;20019;-77
2024/02/15 02:26:50;;;;;;;1.23;0.90;;;8.60;99.90;;;;;;7590222;19;20018;-77
2024/02/15 02:29:22;;;;;;;2.05;1.15;;;8.50;99.90;;;;;;7587655;19;20033;-75
2024/02/15 02:31:55;;;;;;;2.92;1.70;;;8.50;99.90;;;;;;7593328;19;20025;-76
2024/02/15 02:34:27;;;;;;;2.17;1.30;;;8.50;99.90;;;;;;7589743;19;20057;-76
2024/02/15 02:37:02;;;;;;;2.08;1.50;;;8.50;99.90;;;;;;7604255;19;20580;-77
2024/02/15 02:39:34;;;;;;;1.73;1.23;;;8.50;99.90;;;;;;7599449;19;20699;-77
2024/02/15 02:42:08;;;;;;;1.47;1.27;;;8.50;99.90;;;;;;7590766;19;20025;-76
2024/02/15 02:44:40;;;;;;;2.47;1.52;;;8.60;99.90;;;;;;7598703;19;20019;-77
2024/02/15 02:47:12;;;;;;;2.33;1.45;;;8.50;99.90;;;;;;7601782;19;20018;-77
2024/02/15 02:49:45;;;;;;;2.33;1.48;;;8.60;99.90;;;;;;7601150;19;20015;-77
2024/02/15 02:52:17;;;;;;;3.47;1.70;;;8.60;99.90;;;;;;7594376;19;20468;-75
2024/02/15 02:54:51;;;;;;;2.20;1.45;;;8.60;99.90;;;;;;7587661;19;20098;-77
2024/02/15 02:57:23;;;;;;;2.38;1.50;;;8.60;99.90;;;;;;7596534;19;20642;-75
2024/02/15 02:59:55;;;;;;;4.60;1.50;;;8.50;99.90;;;;;;7601827;19;20018;-75
2024/02/15 03:02:29;;;;;;;2.78;1.42;;;8.50;99.90;;;;;;7603724;19;20044;-75
2024/02/15 03:05:03;;;;;;;;;;;8.50;99.90;;;;;;7607824;19;20595;-74
2024/02/15 03:07:36;;;;;;;4.00;1.50;;;8.50;99.90;;;;;;7570107;19;19926;-75
2024/02/15 03:10:46;;;;;;;3.20;1.77;;;8.50;99.90;;;;;;7561545;19;20023;-75
2024/02/15 03:13:20;;;;;;;4.65;1.42;;;8.60;99.90;;;;;;7562011;19;20019;-77
2024/02/15 03:15:53;;;;;;;2.40;1.50;;;8.50;99.90;;;;;;7599204;19;20029;-77
2024/02/15 03:18:25;;;;;;;2.08;1.30;;;8.50;99.90;;;;;;7596810;19;20025;-77
2024/02/15 03:20:58;;;;;;;1.73;1.17;;;8.50;99.90;;;;;;7589068;19;20022;-77
2024/02/15 03:23:32;;;;;;;4.15;1.65;;;8.50;99.90;;;;;;7598550;19;20019;-76
2024/02/15 03:26:08;;;;;;;2.08;1.40;;;8.40;99.90;;;;;;7601239;19;20508;-76
2024/02/15 03:28:41;;;;;;;2.97;1.55;;;8.30;99.90;;;;;;7597570;19;20109;-76
2024/02/15 03:31:14;;;;;;;1.60;1.23;;;8.30;99.90;;;;;;7601508;19;20376;-76
2024/02/15 03:33:49;;;;;;;3.00;1.63;;;8.20;99.90;;;;;;7592076;19;20014;-78
2024/02/15 03:36:23;;;;;;;2.28;1.33;;;8.20;99.90;;;;;;7596029;19;20145;-77
2024/02/15 03:38:55;;;;;;;3.38;1.35;;;8.20;99.90;;;;;;7590597;19;20850;-77
2024/02/15 03:41:32;;;;;;;3.30;1.63;;;8.30;99.90;;;;;;7590861;19;20018;-77
2024/02/15 03:44:05;;;;;;;3.67;1.17;;;8.30;99.90;;;;;;7603784;19;20033;-77
2024/02/15 03:46:37;;;;;;;3.03;1.25;;;8.30;99.90;;;;;;7592355;19;20557;-77
2024/02/15 03:49:11;;;;;;;1.77;1.15;;;8.30;99.90;;;;;;7601489;19;20015;-76
2024/02/15 03:51:44;;;;;;;;;;;8.40;99.90;;;;;;7593655;19;20018;-76
2024/02/15 03:54:17;;;;;;;1.60;1.10;;;8.30;99.90;;;;;;7603394;19;20871;-76
2024/02/15 03:56:54;;;;;;;2.38;1.40;;;8.30;99.90;;;;;;7590997;19;20018;-77
2024/02/15 03:59:27;;;;;;;1.67;1.00;;;8.20;99.90;;;;;;7604063;19;20040;-75
2024/02/15 04:01:59;;;;;;;1.55;1.10;;;8.20;99.90;;;;;;7600896;19;20517;-77
2024/02/15 04:04:31;;;;;;;2.55;1.38;;;8.20;99.90;;;;;;7593329;19;20730;-76
2024/02/15 04:07:04;;;;;;;1.65;1.08;;;8.10;99.90;;;;;;7598261;19;20018;-77
2024/02/15 04:09:36;;;;;;;4.65;1.60;;;8.20;99.90;;;;;;7597130;19;20043;-77
2024/02/15 04:12:08;;;;;;;2.03;1.13;;;8.30;99.90;;;;;;7581248;19;20017;-77
2024/02/15 04:14:44;;;;;;;3.75;1.45;;;8.30;99.90;;;;;;7595525;19;20854;-77
2024/02/15 04:17:17;;;;;;;2.70;1.30;;;8.40;99.90;;;;;;7599067;19;20513;-77
2024/02/15 04:19:50;;;;;;;1.85;1.30;;;8.20;99.90;;;;;;7598280;19;20029;-76
2024/02/15 04:22:22;;;;;;;4.97;1.35;;;8.10;99.90;;;;;;7568839;19;20520;-77
2024/02/15 04:24:56;;;;;;;8.98;1.45;;;8.00;99.90;;;;;;7566665;19;20010;-77
2024/02/15 04:27:28;;;;;;;2.03;1.33;;;7.80;99.90;;;;;;7600741;19;20665;-76
2024/02/15 04:30:02;;;;;;;5.60;1.20;;;7.80;99.90;;;;;;7602876;19;20022;-76
2024/02/15 04:32:36;;;;;;;3.35;1.20;;;7.80;99.90;;;;;;7594715;19;20023;-76
2024/02/15 04:35:09;;;;;;;2.50;1.80;;;7.80;99.90;;;;;;7604695;19;20089;-77
2024/02/15 04:37:46;;;;;;;3.70;1.50;;;7.80;99.90;;;;;;7603394;19;20125;-77
2024/02/15 04:40:19;;;;;;;4.32;1.88;;;7.70;99.90;;;;;;7608223;19;20034;-76
2024/02/15 04:42:52;;;;;;;3.28;1.58;;;7.60;99.90;;;;;;7598711;19;20022;-76
2024/02/15 04:45:25;;;;;;;3.35;1.52;;;7.50;99.90;;;;;;7608817;19;20022;-75
2024/02/15 04:48:05;;;;;;;4.72;1.52;;;7.50;99.90;;;;;;7602342;19;20087;-75
2024/02/15 04:50:37;;;;;;;4.72;1.67;;;7.60;99.90;;;;;;7608048;19;20010;-76
2024/02/15 04:53:11;;;;;;;4.45;1.80;;;7.50;99.90;;;;;;7605217;19;20539;-75
2024/02/15 04:55:43;;;;;;;2.43;1.53;;;7.50;99.90;;;;;;7606311;19;20914;-76
2024/02/15 04:58:16;;;;;;;1.65;1.38;;;7.50;99.90;;;;;;7608094;19;20013;-75
2024/02/15 05:00:52;;;;;;;5.35;1.77;;;7.50;99.90;;;;;;7601933;19;20022;-75
2024/02/15 05:03:24;;;;;;;2.00;1.33;;;7.50;99.90;;;;;;7606034;19;20031;-75
2024/02/15 05:05:57;;;;;;;1.65;1.30;;;7.40;99.90;;;;;;7601968;19;21276;-75
2024/02/15 05:08:31;;;;;;;2.92;1.50;;;7.50;99.90;;;;;;7610855;19;20123;-76
2024/02/15 05:11:05;;;;;;;2.03;1.35;;;7.50;99.90;;;;;;7604867;19;20389;-76
2024/02/15 05:13:37;;;;;;;2.70;1.40;;;7.50;99.90;;;;;;7600757;19;20084;-75
2024/02/15 05:16:10;;;;;;;2.05;1.38;;;7.50;99.90;;;;;;7601392;19;20484;-76
2024/02/15 05:18:42;;;;;;;3.38;1.55;;;7.40;99.90;;;;;;7606177;19;20101;-76
2024/02/15 05:21:15;;;;;;;5.60;1.30;;;7.40;99.90;;;;;;7606795;19;20350;-75
2024/02/15 05:23:48;;;;;;;2.97;1.65;;;7.30;99.90;;;;;;7606084;19;20026;-76
2024/02/15 05:26:23;;;;;;;4.25;1.40;;;7.20;99.90;;;;;;7593485;19;20028;-76
2024/02/15 05:28:55;;;;;;;2.40;1.52;;;7.20;99.90;;;;;;7606808;19;20651;-76
2024/02/15 05:31:28;;;;;;;5.45;2.28;;;7.20;99.90;;;;;;7610004;19;21438;-75
2024/02/15 05:34:00;;;;;;;6.80;2.40;;;7.20;99.90;;;;;;7600553;19;20686;-76
2024/02/15 05:36:33;;;;;;;2.85;1.75;;;7.30;99.90;;;;;;7600895;19;20013;-76
2024/02/15 05:39:06;;;;;;;5.20;1.98;;;7.30;99.90;;;;;;7612727;19;20018;-76
2024/02/15 05:41:40;;;;;;;2.85;1.70;;;7.20;99.90;;;;;;7606371;19;20015;-75
2024/02/15 05:44:13;;;;;;;2.70;1.77;;;7.20;99.90;;;;;;7612186;19;20500;-76
2024/02/15 05:46:47;;;;;;;;;;;7.10;99.90;;;;;;7594441;19;21427;-76
2024/02/15 05:49:19;;;;;;;3.75;1.75;;;6.90;99.90;;;;;;7595959;19;20694;-76
2024/02/15 05:51:53;;;;;;;4.82;2.05;;;6.90;99.90;;;;;;7604041;19;20017;-75
2024/02/15 05:54:26;;;;;;;4.57;1.50;;;6.90;99.90;;;;;;7609404;19;20011;-76
2024/02/15 05:57:00;;;;;;;2.97;1.85;;;6.80;99.90;;;;;;7592335;19;20055;-76
2024/02/15 05:59:36;;;;;;;2.70;1.90;;;6.70;99.90;;;;;;7610145;19;20014;-74
2024/02/15 06:02:09;;;;;;;2.75;1.85;;;6.70;99.90;;;;;;7600396;19;20018;-75
2024/02/15 06:04:42;;;;;;;3.47;2.30;;;6.70;99.90;;;;;;7605220;19;20479;-74
2024/02/15 06:07:14;;;;;;;3.57;1.73;;;6.70;99.90;;;;;;7605087;19;20014;-76
2024/02/15 06:09:47;;;;;;;4.20;1.77;;;6.50;99.90;;;;;;7605807;19;20019;-75
2024/02/15 06:12:20;;;;;;;4.97;2.13;;;6.40;99.90;;;;;;7608950;19;20017;-76
2024/02/15 06:14:52;;;;;;;3.53;1.70;;;6.40;99.90;;;;;;7597003;19;21027;-76
2024/02/15 06:17:24;;;;;;;3.75;2.08;;;6.30;99.90;;;;;;7608463;19;20128;-76
2024/02/15 06:19:59;;;;;;;2.47;1.70;;;6.30;99.90;;;;;;7607805;19;20068;-75
2024/02/15 06:22:32;;;;;;;6.55;2.30;;;6.20;99.90;;;;;;7614398;19;20056;-75
2024/02/15 06:25:05;;;;;;;4.55;2.42;;;6.10;99.90;;;;;;7610564;19;20030;-76
2024/02/15 06:27:40;;;;;;;3.13;2.25;;;6.10;99.90;;;;;;7611583;19;20014;-76
2024/02/15 06:41:37;;;;;;;9.88;2.63;;;6.20;99.90;;;;;;7612937;19;20795;-76
2024/02/15 06:44:10;;;;;;;8.68;2.58;;;6.30;99.90;;;;;;7615504;19;20334;-75
2024/02/15 06:46:42;;;;;;;5.90;2.90;;;6.20;99.90;;;;;;7626661;19;20058;-76
2024/02/15 06:49:14;;;;;;;5.93;2.58;;;6.20;99.90;;;;;;7625108;19;20048;-76
2024/02/15 06:51:51;;;;;;;7.28;3.28;;;6.20;99.90;;;;;;7617182;19;20014;-76
2024/02/15 06:54:23;;;;;;;9.35;4.57;;;6.40;99.90;;;;;;7625530;19;20496;-77
2024/02/15 06:56:56;;;;;;;9.80;5.00;;;6.50;99.90;;;;;;7620406;19;20026;-77
2024/02/15 06:59:29;;;;;;;8.55;4.78;;;6.70;99.90;;;;;;7621570;19;20259;-76
2024/02/15 07:02:04;;;;;;;8.80;3.70;;;6.70;99.90;;;;;;7611556;19;20092;-76
2024/02/15 07:04:37;;;;;;;15.15;4.88;;;6.70;99.90;;;;;;7626010;19;20039;-75
2024/02/15 07:07:10;;;;;;;12.55;5.80;;;6.70;99.90;;;;;;7612638;19;20052;-76
2024/02/15 07:09:42;;;;;;;14.45;5.13;;;6.70;99.90;;;;;;7616410;19;20033;-75
2024/02/15 07:12:15;;;;;;;14.10;4.78;;;6.70;99.90;;;;;;7609536;19;20366;-76
2024/02/15 07:14:48;;;;;;;10.73;5.17;;;6.70;99.90;;;;;;7615319;19;20745;-76
2024/02/15 07:17:20;;;;;;;13.60;4.90;;;6.80;99.90;;;;;;7609188;19;20835;-76
2024/02/15 07:19:53;;;;;;;10.90;5.15;;;6.80;99.90;;;;;;7614374;19;20024;-74
2024/02/15 07:22:25;;;;;;;11.45;4.55;;;6.80;99.90;;;;;;7619701;19;20037;-74
2024/02/15 07:24:57;;;;;;;6.78;3.35;;;6.80;99.90;;;;;;7616660;19;20015;-75
2024/02/15 07:27:30;;;;;;;7.68;3.97;;;7.00;99.90;;;;;;7617039;19;20019;-74
2024/02/15 07:30:04;;;;;;;10.90;3.72;;;7.10;99.90;;;;;;7615644;19;20038;-75
2024/02/15 07:32:37;;;;;;;5.20;2.72;;;7.10;99.90;;;;;;7624210;19;20032;-75
2024/02/15 07:35:09;;;;;;;6.35;3.78;;;7.20;99.90;;;;;;7619213;19;21065;-75
2024/02/15 07:37:52;;;;;;;9.45;3.92;;;7.30;99.90;;;;;;7616498;19;20048;-75
2024/02/15 07:40:28;;;;;;;5.22;2.72;;;7.30;99.90;;;;;;7614277;19;20018;-75
2024/02/15 07:43:03;;;;;;;4.00;2.70;;;7.30;99.90;;;;;;7613329;19;20059;-75
2024/02/15 07:45:37;;;;;;;6.22;3.00;;;7.40;99.90;;;;;;7619996;19;20018;-75
2024/02/15 07:48:09;;;;;;;;;;;7.40;99.90;;;;;;7609893;19;20873;-75
2024/02/15 07:50:43;;;;;;;10.65;3.42;;;7.50;99.90;;;;;;7613238;19;19922;-75
2024/02/15 07:53:16;;;;;;;6.97;3.30;;;7.60;99.90;;;;;;7615278;19;20135;-75
2024/02/15 07:55:50;;;;;;;10.88;3.42;;;7.70;99.90;;;;;;7617148;19;20637;-74
2024/02/15 07:58:22;;;;;;;7.32;2.55;;;7.90;99.90;;;;;;7622976;19;20025;-77
2024/02/15 08:00:56;;;;;;;4.82;2.70;;;8.00;99.90;;;;;;7614227;19;20014;-74
2024/02/15 08:03:29;;;;;;;6.22;2.40;;;8.10;99.90;;;;;;7612595;19;20021;-76
2024/02/15 08:06:06;;;;;;;5.75;2.50;;;8.10;99.90;;;;;;7605916;19;20026;-77
2024/02/15 08:08:46;;;;;;;4.53;2.15;;;8.10;99.90;;;;;;7613850;19;20081;-77
2024/02/15 08:11:19;;;;;;;7.90;2.45;;;8.30;99.90;;;;;;7605768;19;20014;-77
2024/02/15 08:13:59;;;;;;;8.32;2.75;;;8.40;99.90;;;;;;7617789;19;20015;-76
2024/02/15 08:16:33;;;;;;;8.68;2.38;;;8.50;99.90;;;;;;7607279;19;20084;-74
2024/02/15 08:19:06;;;;;;;7.78;2.60;;;8.60;99.90;;;;;;7607976;19;20090;-75
2024/02/15 08:21:42;;;;;;;7.30;2.35;;;8.70;99.90;;;;;;7608272;19;20460;-74
2024/02/15 08:24:14;;;;;;;4.65;1.88;;;8.70;99.90;;;;;;7591535;19;20365;-74
2024/02/15 08:26:47;;;;;;;6.40;2.30;;;8.80;99.90;;;;;;7607349;19;20018;-75
2024/02/15 08:29:20;;;;;;;5.95;2.20;;;8.90;99.90;;;;;;7610299;19;20010;-75
2024/02/15 08:31:52;;;;;;;7.63;2.60;;;9.00;99.90;;;;;;7606676;19;20014;-77
2024/02/15 08:34:24;;;;;;;7.85;2.30;;;9.10;99.90;;;;;;7606330;19;20034;-76
2024/02/15 08:36:58;;;;;;;10.05;2.25;;;9.20;99.90;;;;;;7582941;19;20018;-76
2024/02/15 08:39:30;;;;;;;;;;;9.20;99.90;;;;;;7609117;19;20014;-73
2024/02/15 08:42:04;;;;;;;12.57;2.25;;;9.30;99.90;;;;;;7601429;19;19914;-76
2024/02/15 08:44:36;;;;;;;13.80;3.28;;;9.40;99.90;;;;;;7605507;19;20066;-76
2024/02/15 08:47:09;;;;;;;15.32;2.25;;;9.40;99.90;;;;;;7600467;19;20014;-76
2024/02/15 08:49:41;;;;;;;11.20;2.13;;;9.50;99.90;;;;;;7608514;19;20020;-76
2024/02/15 08:52:14;;;;;;;16.63;2.22;;;9.60;99.90;;;;;;7602993;19;20013;-74
2024/02/15 08:54:46;;;;;;;11.55;2.30;;;9.70;99.90;;;;;;7603433;19;20036;-76
2024/02/15 08:57:19;;;;;;;9.73;1.70;;;9.80;99.90;;;;;;7593164;19;20022;-76
2024/02/15 08:59:54;;;;;;;10.00;1.70;;;9.80;99.90;;;;;;7605247;19;20276;-73
2024/02/15 09:02:27;;;;;;;3.85;1.30;;;9.90;99.90;;;;;;7607264;19;20100;-76
2024/02/15 09:04:59;;;;;;;3.35;1.42;;;10.00;99.90;;;;;;7606210;19;21108;-74
2024/02/15 09:07:31;;;;;;;4.07;1.30;;;10.10;99.90;;;;;;7608036;19;20021;-75
2024/02/15 09:10:07;;;;;;;5.35;1.63;;;10.20;99.90;;;;;;7601352;19;20015;-75
2024/02/15 09:12:40;;;;;;;5.30;1.23;;;10.40;99.90;;;;;;7605250;19;20010;-75
2024/02/15 09:15:16;;;;;;;3.70;1.40;;;10.50;99.90;;;;;;7603908;19;20090;-75
2024/02/15 09:17:49;;;;;;;2.47;1.40;;;10.70;99.90;;;;;;7606277;19;20031;-76
2024/02/15 09:20:25;;;;;;;4.68;1.50;;;10.80;99.90;;;;;;7606064;19;20049;-76
2024/02/15 09:22:57;;;;;;;2.63;1.30;;;10.80;99.90;;;;;;7604561;19;20043;-76
2024/02/15 09:25:31;;;;;;;3.08;1.48;;;10.90;99.90;;;;;;7605287;19;20018;-76
2024/02/15 09:28:03;;;;;;;3.55;1.30;;;10.90;99.90;;;;;;7595790;19;20637;-75
2024/02/15 09:30:36;;;;;;;5.50;1.30;;;11.00;99.90;;;;;;7600882;19;20026;-76
2024/02/15 09:33:08;;;;;;;4.40;1.10;;;11.00;99.90;;;;;;7595839;19;20015;-76
2024/02/15 09:35:40;;;;;;;2.70;1.40;;;11.10;99.90;;;;;;7604906;19;20017;-76
2024/02/15 09:38:16;;;;;;;2.50;1.30;;;11.10;99.90;;;;;;7598803;19;20018;-76
2024/02/15 09:40:49;;;;;;;3.10;1.30;;;11.20;99.90;;;;;;7599145;19;20030;-75
2024/02/15 09:43:25;;;;;;;3.30;1.13;;;11.30;99.90;;;;;;7588941;19;20575;-76
2024/02/15 09:45:58;;;;;;;3.35;1.13;;;11.40;99.90;;;;;;7591283;19;20018;-76
2024/02/15 09:48:34;;;;;;;2.17;1.33;;;11.50;99.90;;;;;;7607301;19;20025;-74
2024/02/15 09:51:08;;;;;;;2.00;1.00;;;11.60;99.90;;;;;;7598996;19;20019;-74
2024/02/15 09:53:41;;;;;;;1.42;0.95;;;11.70;99.90;;;;;;7600646;19;20010;-77
2024/02/15 09:56:15;;;;;;;4.47;1.13;;;11.80;99.90;;;;;;7590711;19;20018;-74
2024/02/15 09:58:47;;;;;;;4.00;1.38;;;11.90;99.90;;;;;;7606336;19;20287;-76
2024/02/15 10:01:27;;;;;;;4.68;1.25;;;11.90;99.90;;;;;;7595125;19;20029;-74
2024/02/15 10:04:06;;;;;;;2.88;1.17;;;11.90;99.90;;;;;;7597620;19;20050;-76
2024/02/15 10:06:40;;;;;;;3.95;1.00;;;12.10;99.90;;;;;;7588310;19;20026;-75
2024/02/15 10:09:30;;;;;;;1.40;0.90;;;12.30;99.90;;;;;;7595052;19;20022;-76
2024/02/15 10:12:06;;;;;;;4.13;1.08;;;12.30;99.90;;;;;;7590215;19;20011;-74
2024/02/15 10:14:49;;;;;;;4.13;1.08;;;12.50;99.90;;;;;;7602216;19;20056;-74
2024/02/15 10:17:22;;;;;;;2.43;1.03;;;12.50;99.90;;;;;;7601630;19;20014;-76
2024/02/15 10:20:06;;;;;;;2.60;1.00;;;12.40;99.90;;;;;;7606396;19;20015;-75
2024/02/15 10:22:38;;;;;;;1.25;0.80;;;12.70;99.90;;;;;;7602851;19;20126;-75
2024/02/15 10:25:14;;;;;;;3.70;1.20;;;12.80;99.90;;;;;;7591825;19;20021;-75
2024/02/15 10:27:47;;;;;;;1.33;0.80;;;12.90;99.90;;;;;;7587885;19;20526;-76
2024/02/15 10:30:20;;;;;;;4.68;0.80;;;12.80;99.90;;;;;;7591856;19;20026;-74
2024/02/15 10:32:53;;;;;;;4.72;1.23;;;12.80;99.90;;;;;;7606269;19;20011;-74
2024/02/15 10:35:29;;;;;;;2.83;1.25;;;13.00;99.90;;;;;;7591207;19;20018;-77
2024/02/15 10:38:10;;;;;;;2.55;1.08;;;13.10;99.90;;;;;;7592012;19;20023;-77
2024/02/15 10:40:43;;;;;;;3.95;1.27;;;13.30;99.90;;;;;;7608029;19;20022;-77
2024/02/15 10:43:16;;;;;;;2.33;0.95;;;13.20;99.90;;;;;;7590336;19;20018;-77
2024/02/15 10:45:52;;;;;;;6.10;1.20;;;13.30;99.90;;;;;;7598334;19;20035;-74
2024/02/15 10:48:24;;;;;;;3.05;1.25;;;13.30;99.90;;;;;;7592877;19;20048;-74
2024/02/15 10:51:01;;;;;;;2.13;1.13;;;13.30;99.90;;;;;;7600182;19;20029;-77
2024/02/15 10:53:41;;;;;;;2.40;1.10;;;13.40;99.90;;;;;;7588907;19;20491;-76
2024/02/15 10:56:23;;;;;;;1.83;1.00;;;13.50;99.90;;;;;;7537118;19;20041;-74
2024/02/15 10:59:07;;;;;;;2.80;1.00;;;13.60;99.90;;;;;;7588518;19;21684;-74
2024/02/15 11:01:42;;;;;;;2.53;1.00;;;13.70;99.90;;;;;;7609964;19;20022;-75
2024/02/15 11:04:26;;;;;;;3.33;1.15;;;13.70;99.90;;;;;;7603842;19;20014;-77
2024/02/15 11:07:01;;;;;;;3.20;1.33;;;14.10;99.90;;;;;;7607508;19;20037;-76
2024/02/15 11:09:36;;;;;;;1.90;1.00;;;14.50;99.90;;;;;;7608502;19;20338;-74
2024/02/15 11:12:08;;;;;;;1.88;1.20;;;14.50;99.60;;;;;;7586775;19;25817;-74
2024/02/15 11:14:44;;;;;;;5.13;1.08;;;14.40;99.90;;;;;;7610472;19;20018;-74
2024/02/15 11:17:48;;;;;;;1.92;1.00;;;14.40;99.60;;;;;;7596919;19;20026;-74
2024/02/15 11:20:41;;;;;;;3.55;1.27;;;14.40;99.90;;;;;;7608313;19;20106;-74
2024/02/15 11:23:25;;;;;;;1.75;0.93;;;14.30;98.80;;;;;;7607778;19;20628;-74
2024/02/15 11:26:49;;;;;;;1.90;0.70;;;14.30;99.20;;;;;;7610696;19;20041;-74
2024/02/15 11:29:54;;;;;;;2.10;1.00;;;14.60;98.90;;;;;;7600636;19;20115;-75
2024/02/15 11:32:36;;;;;;;2.22;0.90;;;14.90;97.70;;;;;;7606708;19;20467;-73
2024/02/15 11:35:23;;;;;;;1.73;1.20;;;15.10;97.60;;;;;;7609711;19;20034;-74
2024/02/15 11:38:03;;;;;;;2.88;0.98;;;15.10;97.40;;;;;;7607686;19;20014;-73
2024/02/15 11:40:43;;;;;;;2.38;1.00;;;15.30;97.10;;;;;;7605131;19;20014;-74
2024/02/15 11:43:52;;;;;;;1.20;0.90;;;15.90;97.20;;;;;;7601612;19;20010;-75
2024/02/15 11:46:25;;;;;;;2.22;0.90;;;18.70;94.50;;;;;;7599339;19;20021;-74
2024/02/15 11:48:59;;;;;;;2.45;0.90;;;20.80;87.00;;;;;;7599495;19;20010;-74
2024/02/15 11:51:36;;;;;;;0.82;0.80;;;21.90;81.70;;;;;;7600899;19;20026;-76
2024/02/15 11:54:11;;;;;;;2.72;1.10;;;21.50;77.60;;;;;;7613810;19;20014;-74
2024/02/15 11:56:47;;;;;;;3.92;1.00;;;22.10;77.00;;;;;;7600152;19;20488;-74
2024/02/15 11:59:42;;;;;;;1.45;1.08;;;23.00;72.20;;;;;;7603507;19;20718;-75
2024/02/15 12:19:34;;;;;;;1.90;0.90;;;21.50;66.80;;;;;;7603217;19;20033;-74
2024/02/15 12:22:08;;;;;;;2.22;1.00;;;20.80;70.00;;;;;;7605454;19;20082;-73
2024/02/15 12:24:41;;;;;;;2.72;1.27;;;20.60;70.30;;;;;;7586230;19;20022;-76
2024/02/15 12:27:14;;;;;;;4.75;0.98;;;19.70;72.10;;;;;;7588515;19;20018;-77
2024/02/15 12:29:58;;;;;;;1.30;0.90;;;18.70;72.50;;;;;;7574052;19;20647;-74
2024/02/15 12:32:31;;;;;;;1.25;1.02;;;18.30;74.80;;;;;;7568031;19;20022;-74
2024/02/15 12:35:16;;;;;;;4.47;1.27;;;18.30;76.00;;;;;;7554879;19;20848;-74
2024/02/15 12:38:08;;;;;;;1.55;1.20;;;18.00;77.10;;;;;;7557438;19;20011;-75
2024/02/15 12:40:41;;;;;;;2.85;1.55;;;17.60;77.60;;;;;;7556234;19;21390;-75
2024/02/15 12:43:17;;;;;;;3.33;1.35;;;17.30;78.70;;;;;;7580072;19;20038;-77
2024/02/15 12:45:49;;;;;;;1.83;1.30;;;17.00;80.00;;;;;;7589332;19;20685;-76
2024/02/15 12:48:22;;;;;;;2.63;1.60;;;16.80;81.20;;;;;;7597535;19;20019;-73
2024/02/15 12:50:55;;;;;;;1.70;1.17;;;16.70;81.00;;;;;;7609448;19;20021;-73
2024/02/15 12:53:27;;;;;;;3.88;1.80;;;16.60;81.90;;;;;;7580385;19;20913;-74
2024/02/15 12:56:00;;;;;;;3.47;1.27;;;16.50;81.30;;;;;;7597022;19;20482;-76
2024/02/15 12:58:32;;;;;;;3.30;1.47;;;16.40;82.50;;;;;;7596708;19;20062;-74
2024/02/15 13:01:05;;;;;;;2.55;1.38;;;16.50;82.00;;;;;;7590039;19;20015;-76
2024/02/15 13:03:40;;;;;;;2.30;1.27;;;16.60;81.80;;;;;;7590032;19;20048;-74
2024/02/15 13:06:13;;;;;;;4.78;1.88;;;17.00;80.80;;;;;;7586914;19;20070;-74
2024/02/15 13:08:48;;;;;;;4.33;1.50;;;17.50;80.10;;;;;;7540028;19;20022;-74
2024/02/15 13:11:27;;;;;;;3.53;1.17;;;17.80;80.00;;;;;;7569759;19;20029;-76
2024/02/15 13:13:59;;;;;;;1.67;1.00;;;18.00;79.10;;;;;;7594647;19;20502;-73
2024/02/15 13:16:32;;;;;;;1.87;1.23;;;17.60;77.00;;;;;;7576919;19;20395;-74
2024/02/15 13:19:06;;;;;;;3.33;1.17;;;17.50;78.70;;;;;;7599315;19;20032;-74
2024/02/15 13:21:39;;;;;;;2.25;1.17;;;17.60;79.00;;;;;;7595778;19;21069;-74
2024/02/15 13:24:11;;;;;;;1.55;0.90;;;17.60;79.20;;;;;;7560092;19;20015;-73
2024/02/15 13:26:44;;;;;;;1.73;1.40;;;17.70;79.30;;;;;;7569821;19;20106;-74
2024/02/15 13:29:17;;;;;;;1.35;1.10;;;17.60;79.00;;;;;;7573005;19;20301;-74
2024/02/15 13:31:50;;;;;;;2.70;1.35;;;17.90;78.10;;;;;;7596724;19;20040;-74
2024/02/15 13:34:23;;;;;;;;;;;17.90;77.50;;;;;;7597213;19;20377;-74
2024/02/15 13:36:56;;;;;;;3.60;1.10;;;17.80;78.00;;;;;;7600468;19;19934;-74
2024/02/15 13:39:32;;;;;;;3.05;0.90;;;17.70;77.30;;;;;;7599718;19;20029;-75
2024/02/15 13:42:05;;;;;;;2.03;0.90;;;17.60;78.10;;;;;;7600409;19;20026;-74
2024/02/15 13:44:37;;;;;;;1.00;0.90;;;17.50;77.60;;;;;;7597295;19;20785;-74
2024/02/15 13:47:11;;;;;;;1.90;0.98;;;17.80;77.40;;;;;;7603085;19;20022;-74
2024/02/15 13:49:44;;;;;;;2.70;1.02;;;17.70;78.30;;;;;;7604997;19;20018;-75
2024/02/15 13:52:17;;;;;;;2.63;1.07;;;17.50;79.10;;;;;;7592554;19;20014;-74
2024/02/15 13:54:50;;;;;;;1.90;1.20;;;17.50;78.80;;;;;;7605667;19;20019;-74
2024/02/15 13:57:23;;;;;;;2.20;1.00;;;17.50;77.20;;;;;;7593810;19;20385;-74
2024/02/15 13:59:55;;;;;;;3.97;0.90;;;17.50;77.70;;;;;;7596278;19;20018;-74
2024/02/15 14:02:28;;;;;;;1.98;1.20;;;17.40;78.40;;;;;;7596986;19;20029;-74